Time;durP1;ratioP1;P1;durP2;ratioP2;P2;SDS_P1;SDS_P2;PMS_P1;PMS_P2;Temp;Humidity;BMP_temperature;BMP_pressure;BME280_temperature;BME280_humidity;BME280_pressure;Samples;Min_cycle;Max_cycle;Signal;HPM_P1;HPM_P2
2023/07/09 00:00:15;;;;;;;7.83;7.37;;;;;;;17.18;100.00;102102.16;4998758;28;20461;-43
2023/07/09 00:02:43;;;;;;;6.90;6.23;;;;;;;17.17;100.00;102106.72;4998620;28;20944;-40
2023/07/09 00:05:17;;;;;;;7.73;7.17;;;;;;;17.16;100.00;102109.63;4998263;28;20468;-42
2023/07/09 00:07:46;;;;;;;7.50;6.90;;;;;;;17.15;100.00;102114.19;4998964;28;20429;-41
2023/07/09 00:10:16;;;;;;;7.90;7.30;;;;;;;17.15;100.00;102121.44;4998977;28;20500;-41
2023/07/09 00:12:44;;;;;;;9.10;7.20;;;;;;;17.13;100.00;102118.97;4999036;28;20414;-42
2023/07/09 00:15:15;;;;;;;7.10;6.60;;;;;;;17.11;100.00;102118.31;4998367;28;20461;-43
2023/07/09 00:17:43;;;;;;;13.57;8.03;;;;;;;17.08;100.00;102113.34;4998956;28;20556;-43
2023/07/09 00:20:13;;;;;;;7.80;7.27;;;;;;;17.06;100.00;102109.19;4998559;28;20540;-41
2023/07/09 00:22:51;;;;;;;8.63;8.03;;;;;;;17.04;100.00;102106.72;4999145;28;20453;-42
2023/07/09 00:25:20;;;;;;;8.93;8.17;;;;;;;17.02;100.00;102105.28;4998379;28;20457;-45
2023/07/09 00:27:49;;;;;;;8.50;7.80;;;;;;;16.99;100.00;102103.81;4998291;28;20525;-41
2023/07/09 00:30:19;;;;;;;8.40;7.73;;;;;;;17.00;100.00;102104.63;4998323;28;20900;-41
2023/07/09 00:32:47;;;;;;;7.70;7.13;;;;;;;16.98;100.00;102107.56;4998535;28;20533;-41
2023/07/09 00:35:16;;;;;;;8.23;7.73;;;;;;;16.99;100.00;102108.38;4998298;28;20814;-42
2023/07/09 00:37:47;;;;;;;9.70;8.67;;;;;;;16.98;100.00;102114.78;4999713;28;20469;-41
2023/07/09 00:40:18;;;;;;;8.97;8.10;;;;;;;16.98;100.00;102114.78;5002290;28;20434;-40
2023/07/09 00:42:47;;;;;;;10.17;9.47;;;;;;;16.99;100.00;102111.88;5002097;28;20480;-44
2023/07/09 00:45:24;;;;;;;10.50;9.70;;;;;;;16.97;100.00;102116.66;5001746;28;20476;-40
2023/07/09 00:47:57;;;;;;;9.70;8.90;;;;;;;16.98;100.00;102112.94;5001609;28;20445;-45
2023/07/09 00:50:35;;;;;;;8.90;8.27;;;;;;;16.99;100.00;102111.88;5002122;28;20837;-46
2023/07/09 00:53:11;;;;;;;8.90;8.43;;;;;;;17.00;100.00;102110.03;5001916;28;20959;-42
2023/07/09 00:55:43;;;;;;;11.23;10.13;;;;;;;17.00;100.00;102112.72;5001070;28;20493;-40
2023/07/09 00:58:16;;;;;;;10.60;9.40;;;;;;;16.99;100.00;102114.56;5001834;28;20483;-41
2023/07/09 01:00:52;;;;;;;10.30;9.40;;;;;;;17.01;100.00;102109.00;5001930;28;20461;-45
2023/07/09 01:03:27;;;;;;;10.83;9.70;;;;;;;17.01;100.00;102117.91;5001443;28;20537;-42
2023/07/09 01:05:55;;;;;;;11.27;10.47;;;;;;;17.01;100.00;102117.91;5002244;28;20504;-46
2023/07/09 01:08:24;;;;;;;9.80;9.00;;;;;;;17.01;100.00;102117.91;5001700;28;20425;-43
2023/07/09 01:10:52;;;;;;;11.00;10.20;;;;;;;17.01;100.00;102115.22;5001399;28;20457;-42
2023/07/09 01:13:20;;;;;;;12.57;11.43;;;;;;;17.03;100.00;102120.41;5002178;28;20430;-44
2023/07/09 01:15:48;;;;;;;11.37;10.33;;;;;;;17.02;100.00;102114.16;5001393;28;20462;-42
2023/07/09 01:18:16;;;;;;;12.53;11.57;;;;;;;17.02;100.00;102110.66;5001233;28;20532;-40
2023/07/09 01:20:43;;;;;;;11.53;10.83;;;;;;;17.00;100.00;102104.63;5002045;28;20476;-41
2023/07/09 01:23:12;;;;;;;11.10;10.30;;;;;;;16.97;100.00;102100.50;5001428;28;20510;-43
2023/07/09 01:25:45;;;;;;;11.63;10.53;;;;;;;16.96;100.00;102104.25;5001446;28;20864;-42
2023/07/09 01:28:16;;;;;;;11.70;10.90;;;;;;;16.93;100.00;102101.13;5001503;28;20445;-43
2023/07/09 01:30:45;;;;;;;11.43;10.53;;;;;;;16.91;100.00;102113.94;5001370;28;20486;-42
2023/07/09 01:33:13;;;;;;;12.57;11.60;;;;;;;16.91;100.00;102116.66;5001242;28;20438;-42
2023/07/09 01:35:42;;;;;;;13.60;12.40;;;;;;;16.90;100.00;102106.91;5001563;28;20557;-41
2023/07/09 01:38:10;;;;;;;11.60;10.80;;;;;;;16.91;100.00;102113.94;5001976;28;20572;-44
2023/07/09 01:40:40;;;;;;;12.97;11.87;;;;;;;16.90;100.00;102115.00;5001595;28;20501;-42
2023/07/09 01:43:08;;;;;;;12.73;11.83;;;;;;;16.88;100.00;102111.66;5001008;28;20797;-44
2023/07/09 01:45:37;;;;;;;11.70;10.80;;;;;;;16.86;100.00;102103.81;5000433;28;20525;-44
2023/07/09 01:48:06;;;;;;;13.37;12.27;;;;;;;16.86;100.00;102102.97;5001196;28;20437;-41
2023/07/09 01:50:34;;;;;;;12.27;11.37;;;;;;;16.85;100.00;102107.50;5000333;28;20453;-44
2023/07/09 01:53:02;;;;;;;11.83;11.07;;;;;;;16.85;100.00;102110.22;5000676;28;20434;-44
2023/07/09 01:55:30;;;;;;;12.10;11.30;;;;;;;16.85;100.00;102107.50;5000797;28;20473;-42
2023/07/09 01:57:59;;;;;;;13.80;12.80;;;;;;;16.84;100.00;102108.56;5001030;28;20481;-41
2023/07/09 02:00:27;;;;;;;12.80;11.87;;;;;;;16.86;100.00;102111.03;5000669;28;20441;-44
2023/07/09 02:02:55;;;;;;;13.63;12.63;;;;;;;16.85;100.00;102110.22;5000567;28;20429;-44
2023/07/09 02:05:23;;;;;;;11.50;10.90;;;;;;;16.85;100.00;102107.50;5000531;28;20461;-43
2023/07/09 02:07:51;;;;;;;11.43;10.80;;;;;;;16.86;100.00;102117.28;5000922;28;20484;-41
2023/07/09 02:10:19;;;;;;;11.03;10.33;;;;;;;16.85;100.00;102107.50;5000909;28;21012;-41
2023/07/09 02:12:47;;;;;;;12.20;11.30;;;;;;;16.85;100.00;102101.28;5001139;28;20450;-44
2023/07/09 02:15:17;;;;;;;12.33;11.63;;;;;;;16.84;100.00;102095.09;5000011;28;20462;-44
2023/07/09 02:17:45;;;;;;;11.10;10.40;;;;;;;16.83;100.00;102095.28;5000674;28;20430;-44
2023/07/09 02:20:15;;;;;;;12.67;11.77;;;;;;;16.80;100.00;102096.53;5000425;28;20442;-44
2023/07/09 02:22:43;;;;;;;11.90;11.20;;;;;;;16.81;100.00;102102.75;5000609;28;20430;-43
2023/07/09 02:25:11;;;;;;;11.57;10.73;;;;;;;16.81;100.00;102097.38;5000282;28;20537;-43
2023/07/09 02:27:39;;;;;;;12.30;11.60;;;;;;;16.80;100.00;102098.41;5000417;28;20450;-42
2023/07/09 02:30:08;;;;;;;10.80;10.00;;;;;;;16.79;100.00;102094.88;5000440;28;20426;-41
2023/07/09 02:32:38;;;;;;;12.07;11.13;;;;;;;16.77;100.00;102099.63;5000526;28;20434;-41
2023/07/09 02:35:06;;;;;;;11.40;10.70;;;;;;;16.78;100.00;102090.53;4999768;28;20489;-43
2023/07/09 02:37:34;;;;;;;11.13;10.40;;;;;;;16.77;100.00;102088.88;5000165;28;20457;-41
2023/07/09 02:40:03;;;;;;;10.57;10.03;;;;;;;16.77;100.00;102080.78;4999708;28;20478;-48
2023/07/09 02:42:31;;;;;;;10.60;9.83;;;;;;;16.79;100.00;102085.94;4999005;28;20995;-41
2023/07/09 02:44:59;;;;;;;11.37;10.60;;;;;;;16.78;100.00;102079.75;4999859;28;20991;-44
2023/07/09 02:47:27;;;;;;;11.40;10.70;;;;;;;16.77;100.00;102086.16;4999889;28;20859;-46
2023/07/09 02:49:56;;;;;;;10.73;10.23;;;;;;;16.76;100.00;102089.88;4999725;28;20465;-40
2023/07/09 02:52:23;;;;;;;10.93;10.20;;;;;;;16.78;100.00;102101.31;5000287;28;20481;-46
2023/07/09 02:54:51;;;;;;;11.63;10.67;;;;;;;16.80;100.00;102115.41;4999620;28;20836;-42
2023/07/09 02:57:19;;;;;;;11.47;10.57;;;;;;;16.82;100.00;102113.31;4999334;28;20434;-42
2023/07/09 02:59:46;;;;;;;12.03;11.23;;;;;;;16.85;100.00;102112.91;4999481;28;20509;-42
2023/07/09 03:02:14;;;;;;;12.03;11.33;;;;;;;16.88;100.00;102106.28;5000277;28;20557;-42
2023/07/09 03:04:42;;;;;;;11.63;10.63;;;;;;;16.94;100.00;102105.44;4999664;28;20458;-42
2023/07/09 03:07:11;;;;;;;11.27;10.37;;;;;;;16.94;100.00;102105.44;5000146;28;20935;-42
2023/07/09 03:09:38;;;;;;;11.43;10.63;;;;;;;16.96;100.00;102120.41;5000057;28;20445;-44
2023/07/09 03:12:08;;;;;;;11.90;11.10;;;;;;;17.01;100.00;102117.91;5000516;28;20454;-41
2023/07/09 03:14:36;;;;;;;11.43;10.80;;;;;;;17.04;100.00;102109.41;4999556;28;20465;-46
2023/07/09 03:17:04;;;;;;;11.63;10.80;;;;;;;17.09;100.00;102120.41;4999804;28;20481;-44
2023/07/09 03:19:32;;;;;;;11.50;10.70;;;;;;;17.12;100.00;102111.91;4999682;28;20540;-43
2023/07/09 03:22:04;;;;;;;12.07;11.27;;;;;;;17.17;100.00;102112.09;5000110;28;20485;-44
2023/07/09 03:24:33;;;;;;;11.77;11.00;;;;;;;17.22;100.00;102111.50;4999075;28;20469;-43
2023/07/09 03:27:01;;;;;;;12.33;11.40;;;;;;;17.29;100.00;102111.50;4999942;28;20545;-44
2023/07/09 03:29:29;;;;;;;11.47;10.63;;;;;;;17.36;100.00;102115.84;4999791;28;20430;-42
2023/07/09 03:31:56;;;;;;;11.83;10.73;;;;;;;17.61;100.00;102116.06;4999512;28;20499;-42
2023/07/09 03:34:24;;;;;;;12.17;11.37;;;;;;;18.02;100.00;102119.31;4999259;28;20460;-42
2023/07/09 03:36:52;;;;;;;11.97;11.17;;;;;;;18.14;100.00;102109.50;4999222;28;20438;-43
2023/07/09 03:39:20;;;;;;;11.30;10.40;;;;;;;18.20;100.00;102108.66;5000306;28;20938;-41
2023/07/09 03:41:49;;;;;;;10.90;10.03;;;;;;;18.23;100.00;102099.28;4999399;28;20546;-44
2023/07/09 03:44:16;;;;;;;11.17;10.47;;;;;;;18.29;100.00;102101.13;4999154;28;20434;-46
2023/07/09 03:46:44;;;;;;;11.53;10.67;;;;;;;18.31;100.00;102107.16;4999182;28;20532;-42
2023/07/09 03:49:12;;;;;;;10.33;9.73;;;;;;;18.36;100.00;102101.13;4999325;28;20430;-41
2023/07/09 03:51:40;;;;;;;9.07;8.67;;;;;;;18.41;100.00;102107.53;4998811;28;20481;-42
2023/07/09 03:54:07;;;;;;;8.97;8.50;;;;;;;18.49;100.00;102101.06;4999321;28;20433;-41
2023/07/09 03:56:37;;;;;;;9.83;9.20;;;;;;;18.61;100.00;102099.34;4999585;28;20848;-43
2023/07/09 03:59:06;;;;;;;9.90;9.30;;;;;;;18.65;100.00;102095.16;4999419;28;20488;-43
2023/07/09 04:01:34;;;;;;;8.70;8.10;;;;;;;18.69;100.00;102093.69;4998235;28;20473;-41
2023/07/09 04:04:01;;;;;;;9.80;9.03;;;;;;;18.77;100.00;102094.25;4999379;28;20465;-41
2023/07/09 04:06:29;;;;;;;10.13;9.33;;;;;;;18.89;100.00;102091.69;4999833;28;20437;-46
2023/07/09 04:08:57;;;;;;;10.03;9.03;;;;;;;18.97;100.00;102096.00;4999296;28;20517;-43
2023/07/09 04:11:25;;;;;;;8.33;7.83;;;;;;;19.11;100.00;102089.47;4999209;28;21007;-43
2023/07/09 04:13:52;;;;;;;8.73;8.17;;;;;;;19.24;100.00;102092.03;5002217;28;20955;-41
2023/07/09 04:16:21;;;;;;;8.27;7.87;;;;;;;19.37;100.00;102086.53;5002238;28;20454;-42
2023/07/09 04:18:49;;;;;;;8.40;7.53;;;;;;;19.45;100.00;102080.00;5003623;28;20429;-42
2023/07/09 04:21:17;;;;;;;8.47;8.03;;;;;;;19.62;100.00;102087.34;5002916;28;20851;-44
2023/07/09 04:23:45;;;;;;;9.13;8.23;;;;;;;19.70;100.00;102081.66;5003002;28;20488;-41
2023/07/09 04:26:13;;;;;;;8.10;7.63;;;;;;;19.81;100.00;102078.19;5002767;28;20470;-41
2023/07/09 04:28:41;;;;;;;9.40;8.53;;;;;;;19.98;100.00;102074.88;5002561;28;20448;-46
2023/07/09 04:31:09;;;;;;;9.87;9.03;;;;;;;20.12;100.00;102069.09;5002847;28;20481;-41
2023/07/09 04:33:38;;;;;;;7.90;7.50;;;;;;;20.62;100.00;102088.66;5002462;28;20951;-41
2023/07/09 04:36:08;;;;;;;8.53;7.70;;;;;;;21.55;100.00;102077.16;5002465;28;20468;-42
2023/07/09 04:38:36;;;;;;;7.50;7.20;;;;;;;22.13;100.00;102074.38;5002661;28;20445;-44
2023/07/09 04:41:03;;;;;;;7.20;6.90;;;;;;;22.79;100.00;102074.56;5002375;28;20488;-41
2023/07/09 04:43:31;;;;;;;6.33;5.93;;;;;;;23.32;100.00;102071.38;5001454;28;20437;-41
2023/07/09 04:45:59;;;;;;;7.23;6.83;;;;;;;23.95;100.00;102073.66;5001933;28;20453;-41
2023/07/09 04:48:27;;;;;;;6.70;6.20;;;;;;;24.75;100.00;102065.59;5001670;28;20465;-44
2023/07/09 04:50:56;;;;;;;7.30;5.77;;;;;;;25.50;94.65;102070.03;5001919;28;20458;-42
2023/07/09 04:53:24;;;;;;;5.43;5.17;;;;;;;25.84;99.47;102074.03;5001441;28;20469;-40
2023/07/09 04:55:52;;;;;;;6.83;6.27;;;;;;;26.42;95.00;102074.84;5001333;28;20552;-43
2023/07/09 04:58:20;;;;;;;5.73;5.40;;;;;;;26.51;87.53;102064.19;5002598;28;20438;-43
2023/07/09 05:00:49;;;;;;;8.20;6.90;;;;;;;26.59;70.65;102074.59;5000911;28;20480;-41
2023/07/09 05:03:17;;;;;;;6.13;5.73;;;;;;;26.42;81.25;102076.75;5001471;28;20436;-46
2023/07/09 05:05:45;;;;;;;6.60;6.10;;;;;;;26.46;81.89;102078.69;5000207;28;20473;-42
2023/07/09 05:08:16;;;;;;;6.57;6.07;;;;;;;26.86;81.00;102084.22;5001010;28;20430;-48
2023/07/09 05:10:44;;;;;;;6.10;5.60;;;;;;;27.24;77.93;102085.59;5002057;28;20453;-44
2023/07/09 05:13:12;;;;;;;5.70;5.30;;;;;;;27.91;76.22;102070.66;5001199;28;20501;-43
2023/07/09 05:15:42;;;;;;;5.63;5.13;;;;;;;27.57;74.83;102066.97;5000972;28;20520;-41
2023/07/09 05:18:10;;;;;;;5.53;5.23;;;;;;;27.86;71.29;102066.03;5001524;28;20439;-42
2023/07/09 05:20:38;;;;;;;5.50;5.13;;;;;;;28.31;70.04;102076.00;5001444;28;20512;-42
2023/07/09 05:23:05;;;;;;;5.23;4.83;;;;;;;28.78;66.62;102074.63;5000373;28;20444;-41
2023/07/09 05:25:34;;;;;;;7.80;5.70;;;;;;;29.03;64.16;102061.47;5000218;28;20489;-44
2023/07/09 05:28:02;;;;;;;4.70;4.50;;;;;;;28.89;60.39;102062.44;5000346;28;20437;-43
2023/07/09 05:30:30;;;;;;;5.30;4.70;;;;;;;28.80;60.31;102064.16;5001033;28;20454;-43
2023/07/09 05:32:59;;;;;;;5.20;4.80;;;;;;;28.30;62.78;102070.78;5000313;28;20436;-42
2023/07/09 05:35:27;;;;;;;5.00;4.70;;;;;;;28.35;62.21;102073.50;5000058;28;20831;-40
2023/07/09 05:37:56;;;;;;;5.40;4.73;;;;;;;28.55;60.66;102065.16;5000725;28;20865;-43
2023/07/09 05:40:24;;;;;;;5.40;4.93;;;;;;;28.88;59.76;102069.06;4999918;28;20569;-47
2023/07/09 05:42:53;;;;;;;5.30;4.90;;;;;;;29.38;56.07;102060.38;5000097;28;20468;-43
2023/07/09 05:45:20;;;;;;;5.00;4.70;;;;;;;30.08;52.87;102066.16;4999548;28;20548;-42
2023/07/09 05:47:48;;;;;;;5.10;4.80;;;;;;;30.48;49.67;102075.81;4999929;28;20528;-44
2023/07/09 05:50:16;;;;;;;4.67;4.37;;;;;;;30.57;53.54;102072.09;5000081;28;20264;-44
2023/07/09 05:52:43;;;;;;;4.77;4.40;;;;;;;30.98;51.90;102069.53;4999761;28;20195;-43
2023/07/09 05:55:11;;;;;;;5.07;4.73;;;;;;;31.53;51.55;102062.22;4999626;28;20472;-43
2023/07/09 05:57:39;;;;;;;4.13;3.87;;;;;;;31.83;46.31;102071.00;4999178;28;20202;-41
2023/07/09 06:00:10;;;;;;;5.03;4.53;;;;;;;31.62;44.34;102073.34;4999785;28;20222;-44
2023/07/09 06:02:40;;;;;;;4.78;4.47;;;;;;;31.97;46.94;102075.38;5000235;28;20183;-43
2023/07/09 06:05:09;;;;;;;4.75;4.35;;;;;;;32.27;45.70;102062.88;4999481;28;20218;-43
2023/07/09 06:07:37;;;;;;;6.70;4.43;;;;;;;32.47;45.29;102058.84;5000056;28;20198;-41
2023/07/09 06:10:05;;;;;;;4.25;3.92;;;;;;;33.00;44.87;102057.00;5000600;28;20218;-41
2023/07/09 06:12:33;;;;;;;5.25;4.75;;;;;;;32.88;39.72;102054.00;5000254;28;20225;-44
2023/07/09 06:15:01;;;;;;;4.47;4.18;;;;;;;32.82;41.89;102049.72;5000229;28;20301;-44
2023/07/09 06:17:30;;;;;;;5.10;4.47;;;;;;;32.62;38.76;102058.50;5000355;28;20197;-42
2023/07/09 06:19:57;;;;;;;4.93;4.63;;;;;;;32.72;38.93;102058.25;5000469;28;20202;-41
2023/07/09 06:22:26;;;;;;;4.55;4.25;;;;;;;33.08;39.45;102053.50;5000400;28;20218;-41
2023/07/09 06:24:54;;;;;;;6.55;4.55;;;;;;;33.26;40.12;102055.22;5000621;28;20218;-42
2023/07/09 06:27:23;;;;;;;4.70;4.40;;;;;;;33.33;38.77;102047.28;5000516;28;20261;-44
2023/07/09 06:29:51;;;;;;;4.20;4.00;;;;;;;32.95;37.66;102048.81;4999790;28;20194;-42
2023/07/09 06:32:19;;;;;;;5.72;4.50;;;;;;;32.89;36.54;102039.03;5000268;28;20405;-43
2023/07/09 06:34:48;;;;;;;4.57;4.38;;;;;;;33.38;38.14;102047.16;4998807;28;20226;-43
2023/07/09 06:37:16;;;;;;;4.65;4.25;;;;;;;33.48;38.51;102045.25;4999746;28;20198;-41
2023/07/09 06:39:44;;;;;;;4.43;4.22;;;;;;;33.31;36.01;102041.25;4999650;28;20673;-42
2023/07/09 06:42:12;;;;;;;4.47;4.20;;;;;;;33.42;36.93;102034.28;4999398;28;20245;-41
2023/07/09 06:44:39;;;;;;;4.28;4.07;;;;;;;33.32;37.20;102039.31;4999232;28;20592;-45
2023/07/09 06:47:08;;;;;;;4.38;4.07;;;;;;;33.51;35.14;102037.13;4999100;28;20336;-43
2023/07/09 06:49:36;;;;;;;4.82;4.40;;;;;;;34.09;36.84;102047.88;4999814;28;20668;-41
2023/07/09 06:52:06;;;;;;;4.10;3.90;;;;;;;34.26;35.45;102039.59;4998399;28;20215;-43
2023/07/09 06:54:34;;;;;;;4.72;4.53;;;;;;;34.10;34.59;102044.00;4998552;28;20312;-42
2023/07/09 06:57:01;;;;;;;4.55;4.35;;;;;;;34.28;35.62;102040.09;4999033;28;20652;-41
2023/07/09 06:59:29;;;;;;;4.35;4.03;;;;;;;34.68;33.76;102040.75;4999205;28;20225;-45
2023/07/09 07:01:57;;;;;;;5.13;4.63;;;;;;;34.68;32.27;102043.53;4999024;28;20253;-42
2023/07/09 07:04:27;;;;;;;4.70;4.30;;;;;;;35.18;35.15;102049.34;4999524;28;20232;-41
2023/07/09 07:06:56;;;;;;;5.65;5.10;;;;;;;35.14;32.59;102050.31;4999514;28;20194;-41
2023/07/09 07:09:26;;;;;;;5.10;4.70;;;;;;;35.21;31.76;102051.44;4998818;28;20226;-41
2023/07/09 07:11:54;;;;;;;4.80;4.50;;;;;;;35.57;32.44;102058.50;4998686;28;20210;-44
2023/07/09 07:14:21;;;;;;;4.70;4.50;;;;;;;34.80;33.65;102059.47;4998180;28;20331;-45
2023/07/09 07:16:51;;;;;;;4.55;4.20;;;;;;;34.97;33.55;102057.50;4999549;28;20202;-41
2023/07/09 07:19:19;;;;;;;5.22;4.95;;;;;;;35.28;33.76;102062.00;4999869;28;20194;-41
2023/07/09 07:21:47;;;;;;;5.10;4.45;;;;;;;35.34;33.10;102069.00;4999396;28;20253;-41
2023/07/09 07:24:15;;;;;;;5.50;5.20;;;;;;;35.48;33.00;102069.63;4999019;28;20179;-42
2023/07/09 07:26:44;;;;;;;5.50;5.05;;;;;;;35.46;32.07;102067.16;4998906;28;20207;-43
2023/07/09 07:29:12;;;;;;;5.18;4.78;;;;;;;35.47;32.41;102054.91;4998631;28;20182;-42
2023/07/09 07:31:39;;;;;;;4.57;4.20;;;;;;;35.16;32.77;102057.16;4997435;28;20273;-43
2023/07/09 07:34:07;;;;;;;4.90;4.60;;;;;;;34.77;33.52;102049.88;4997540;28;20735;-43
2023/07/09 07:36:35;;;;;;;4.65;4.28;;;;;;;34.98;32.49;102050.81;4998886;28;20237;-42
2023/07/09 07:39:08;;;;;;;4.50;4.15;;;;;;;35.00;33.06;102050.50;4998425;28;20676;-44
2023/07/09 07:41:36;;;;;;;4.25;4.03;;;;;;;34.60;33.26;102041.59;4996125;28;20222;-42
2023/07/09 07:44:05;;;;;;;4.40;4.10;;;;;;;33.98;33.48;102051.25;4997692;28;20179;-43
2023/07/09 07:46:33;;;;;;;4.35;4.05;;;;;;;33.69;33.55;102046.31;4999199;28;20198;-41
2023/07/09 07:49:01;;;;;;;4.60;4.35;;;;;;;33.39;34.56;102047.97;5002178;28;20186;-41
2023/07/09 07:51:29;;;;;;;4.32;4.13;;;;;;;33.40;35.06;102042.09;5001281;28;20704;-47
2023/07/09 07:53:57;;;;;;;4.57;4.25;;;;;;;33.65;35.11;102048.09;5001937;28;20201;-44
2023/07/09 07:56:25;;;;;;;4.80;4.40;;;;;;;33.51;35.27;102056.47;5002040;28;20659;-45
2023/07/09 07:58:53;;;;;;;5.05;4.75;;;;;;;33.56;34.20;102056.31;5001626;28;20190;-41
2023/07/09 08:01:22;;;;;;;4.28;3.95;;;;;;;33.10;34.75;102056.75;5001029;28;20237;-42
2023/07/09 08:03:50;;;;;;;5.00;4.70;;;;;;;32.96;35.01;102055.16;5005520;28;20199;-42
2023/07/09 08:06:18;;;;;;;4.93;4.63;;;;;;;32.99;36.02;102046.25;5014499;28;20667;-42
2023/07/09 08:08:45;;;;;;;4.53;4.22;;;;;;;32.69;36.85;102045.06;5015243;28;20228;-43
2023/07/09 08:11:13;;;;;;;5.43;5.13;;;;;;;32.30;37.16;102053.97;5000144;28;20240;-46
2023/07/09 08:13:41;;;;;;;4.47;4.18;;;;;;;32.00;36.78;102038.06;5011597;28;20663;-42
2023/07/09 08:16:11;;;;;;;4.40;4.20;;;;;;;31.56;37.79;102033.22;5018212;28;20225;-45
2023/07/09 08:18:40;;;;;;;4.50;4.30;;;;;;;31.07;38.07;102037.41;5019486;28;20205;-41
2023/07/09 08:21:09;;;;;;;4.57;4.27;;;;;;;30.68;38.02;102039.69;5009514;28;20218;-43
2023/07/09 08:23:36;;;;;;;5.10;4.80;;;;;;;30.55;38.71;102034.97;5009466;28;20201;-43
2023/07/09 08:26:04;;;;;;;5.60;5.20;;;;;;;30.51;39.20;102044.94;5001560;28;20249;-41
2023/07/09 08:28:35;;;;;;;6.50;4.57;;;;;;;29.91;40.78;102036.41;5013511;28;20240;-45
2023/07/09 08:31:03;;;;;;;5.17;4.87;;;;;;;29.72;40.77;102040.22;5008540;28;20715;-42
2023/07/09 08:33:32;;;;;;;5.33;4.83;;;;;;;29.88;41.32;102026.00;5017854;28;20221;-44
2023/07/09 08:36:01;;;;;;;5.23;4.70;;;;;;;30.00;41.76;102026.38;5015751;28;20488;-41
2023/07/09 08:38:28;;;;;;;5.77;5.37;;;;;;;29.87;40.82;102026.31;5011904;28;20324;-42
2023/07/09 08:40:59;;;;;;;5.10;4.70;;;;;;;29.96;41.53;102028.09;5013374;28;20320;-43
2023/07/09 08:43:35;;;;;;;5.30;4.97;;;;;;;29.97;42.07;102032.47;5015104;28;20532;-42
2023/07/09 08:46:11;;;;;;;5.43;5.03;;;;;;;29.79;41.88;102038.72;5006456;28;20470;-45
2023/07/09 08:48:43;;;;;;;6.10;5.17;;;;;;;29.83;43.04;102033.50;5011615;28;20519;-43
2023/07/09 08:51:20;;;;;;;5.97;5.50;;;;;;;29.88;44.06;102038.91;4999920;28;20445;-43
2023/07/09 08:53:52;;;;;;;5.60;5.20;;;;;;;29.90;46.95;102040.25;5018542;28;20511;-42
2023/07/09 08:56:21;;;;;;;5.07;4.70;;;;;;;29.71;48.18;102042.13;5007464;28;20497;-41
2023/07/09 08:58:53;;;;;;;5.33;4.97;;;;;;;29.35;49.25;102044.47;5011833;28;20495;-43
2023/07/09 09:01:23;;;;;;;5.80;5.40;;;;;;;29.24;48.70;102042.13;5009045;28;20461;-46
2023/07/09 09:03:54;;;;;;;5.37;5.07;;;;;;;29.07;49.81;102040.59;5017476;28;20467;-42
2023/07/09 09:06:27;;;;;;;6.13;5.53;;;;;;;28.92;51.39;102039.91;5018143;28;20457;-45
2023/07/09 09:09:05;;;;;;;6.00;5.57;;;;;;;28.77;52.36;102042.75;5002792;28;20429;-44
2023/07/09 09:11:43;;;;;;;5.63;5.27;;;;;;;28.62;52.93;102029.94;4990574;28;20654;-43
2023/07/09 09:14:24;;;;;;;5.93;5.43;;;;;;;28.71;53.52;102035.69;5001072;28;20433;-44
2023/07/09 09:16:53;;;;;;;6.23;5.80;;;;;;;28.91;52.02;102039.06;5018595;28;20432;-44
2023/07/09 09:19:24;;;;;;;5.73;5.23;;;;;;;28.79;53.11;102040.56;5019093;28;20594;-40
2023/07/09 09:22:01;;;;;;;5.57;5.20;;;;;;;28.75;53.38;102039.50;5018450;28;20476;-46
2023/07/09 09:24:37;;;;;;;6.03;5.63;;;;;;;28.83;55.09;102036.94;5013612;28;20548;-47
2023/07/09 09:27:05;;;;;;;6.20;5.70;;;;;;;28.79;56.11;102033.13;4997858;28;20452;-40
2023/07/09 09:29:33;;;;;;;5.40;5.00;;;;;;;28.71;55.18;102033.75;4999399;28;20441;-44
2023/07/09 09:32:15;;;;;;;5.40;5.00;;;;;;;28.58;55.79;102032.44;4998243;28;20882;-42
2023/07/09 09:34:42;;;;;;;5.30;4.97;;;;;;;28.36;59.32;102031.25;4995835;28;20548;-45
2023/07/09 09:37:12;;;;;;;6.23;5.63;;;;;;;28.49;57.25;102033.38;4997056;28;20443;-44
2023/07/09 09:39:40;;;;;;;5.63;5.23;;;;;;;28.49;57.15;102028.66;4998394;28;20421;-45
2023/07/09 09:42:12;;;;;;;7.63;5.67;;;;;;;28.44;57.85;102033.38;4997295;28;20488;-42
2023/07/09 09:44:44;;;;;;;7.23;5.27;;;;;;;28.37;59.44;102033.72;4997197;28;20465;-41
2023/07/09 09:47:13;;;;;;;5.90;5.40;;;;;;;28.53;59.16;102027.00;4997774;28;20453;-41
2023/07/09 09:49:41;;;;;;;6.40;6.00;;;;;;;28.61;59.44;102025.59;4997894;28;20429;-47
2023/07/09 09:52:14;;;;;;;5.70;5.30;;;;;;;28.63;60.28;102020.63;4997606;28;20532;-43
2023/07/09 09:54:56;;;;;;;5.53;5.07;;;;;;;28.65;59.49;102018.44;4997531;28;20477;-46
2023/07/09 09:57:25;;;;;;;5.53;5.07;;;;;;;28.57;58.53;102024.50;4997852;28;20493;-45
2023/07/09 09:59:55;;;;;;;6.03;5.63;;;;;;;28.49;58.30;102016.91;4996648;28;20517;-46
2023/07/09 10:02:25;;;;;;;6.10;5.70;;;;;;;28.49;60.10;102014.94;4997516;28;20485;-44
2023/07/09 10:04:53;;;;;;;6.00;5.57;;;;;;;28.48;58.60;102021.56;5004318;28;20456;-48
2023/07/09 10:07:31;;;;;;;6.07;5.63;;;;;;;28.60;59.55;102014.88;5016067;28;20436;-46
2023/07/09 10:09:59;;;;;;;5.40;5.10;;;;;;;28.58;59.29;102019.84;5015988;28;20425;-45
2023/07/09 10:12:38;;;;;;;6.20;5.70;;;;;;;28.63;60.59;102015.13;5017727;28;20476;-44
2023/07/09 10:15:18;;;;;;;5.93;5.53;;;;;;;28.69;60.20;102019.50;5018003;28;20825;-41
2023/07/09 10:17:55;;;;;;;5.87;5.47;;;;;;;28.70;60.27;102012.09;5017858;28;20460;-41
2023/07/09 10:20:26;;;;;;;6.17;5.67;;;;;;;28.75;59.27;102020.28;5018638;28;20493;-43
2023/07/09 10:23:04;;;;;;;6.60;5.93;;;;;;;28.64;58.97;102021.44;5017402;28;21008;-42
2023/07/09 10:25:40;;;;;;;5.53;5.13;;;;;;;28.40;59.93;102022.19;5017962;28;20464;-41
2023/07/09 10:28:36;;;;;;;6.37;5.60;;;;;;;28.37;60.41;102024.66;5016707;28;20440;-41
2023/07/09 10:31:12;;;;;;;6.30;5.90;;;;;;;28.44;60.19;102011.41;5018186;28;20491;-44
2023/07/09 10:33:56;;;;;;;6.17;5.77;;;;;;;28.53;59.44;102009.72;5016544;28;20502;-41
2023/07/09 10:36:37;;;;;;;5.97;5.00;;;;;;;28.61;58.53;102008.28;5017760;28;20505;-42
2023/07/09 10:39:10;;;;;;;5.60;5.33;;;;;;;28.70;57.28;102014.84;5017143;28;20433;-44
2023/07/09 10:41:39;;;;;;;6.20;5.63;;;;;;;28.79;56.80;102016.66;5015848;28;20475;-43
2023/07/09 10:44:16;;;;;;;6.47;5.50;;;;;;;28.97;56.63;102015.94;5015782;28;20465;-46
2023/07/09 10:46:49;;;;;;;6.13;5.53;;;;;;;29.03;55.50;102012.03;5015810;28;20508;-44
2023/07/09 10:49:18;;;;;;;7.10;5.17;;;;;;;29.02;54.91;102013.19;5016180;28;20463;-41
2023/07/09 10:51:52;;;;;;;6.00;5.50;;;;;;;29.02;55.08;102001.38;5016257;28;20520;-43
2023/07/09 10:54:29;;;;;;;6.03;5.67;;;;;;;28.95;54.17;102007.19;5015227;28;20874;-43
2023/07/09 10:57:01;;;;;;;5.87;5.57;;;;;;;28.92;54.06;102007.78;5015685;28;20435;-42
2023/07/09 10:59:32;;;;;;;6.20;5.43;;;;;;;28.94;54.70;102002.00;5016088;28;20536;-41
2023/07/09 11:02:15;;;;;;;5.90;5.37;;;;;;;28.90;53.18;102003.69;5016058;28;20468;-44
2023/07/09 11:04:48;;;;;;;5.73;5.23;;;;;;;28.68;52.38;102001.38;5015776;28;20464;-41
2023/07/09 11:07:21;;;;;;;5.87;5.47;;;;;;;28.72;52.24;102010.69;5015341;28;20464;-44
2023/07/09 11:09:54;;;;;;;5.07;4.77;;;;;;;28.82;52.50;102005.09;5016240;28;20523;-42
2023/07/09 11:12:31;;;;;;;5.60;5.20;;;;;;;28.82;52.87;102005.09;5010785;28;20460;-45
2023/07/09 11:15:02;;;;;;;5.50;5.10;;;;;;;29.01;51.05;102008.78;5015539;28;20461;-42
2023/07/09 11:17:33;;;;;;;6.77;5.00;;;;;;;29.07;51.22;102002.13;5015961;28;20802;-47
2023/07/09 11:20:07;;;;;;;5.30;4.90;;;;;;;29.25;51.06;102005.28;5015737;28;20799;-43
2023/07/09 11:22:38;;;;;;;6.10;5.70;;;;;;;29.31;48.74;102004.09;5014216;28;20501;-43
2023/07/09 11:25:11;;;;;;;12.23;5.30;;;;;;;29.17;48.59;102003.97;5014623;28;20491;-41
2023/07/09 11:27:55;;;;;;;5.40;5.00;;;;;;;29.28;48.13;101994.53;5015566;28;20447;-46